createdAt,value
2023-11-27T00:01:59.568Z,4.49
2023-11-27T00:04:26.545Z,4.47
2023-11-27T00:06:53.490Z,4.47
2023-11-27T00:09:21.012Z,4.42
2023-11-27T00:11:47.925Z,4.43
2023-11-27T00:14:14.697Z,4.40
2023-11-27T00:16:41.565Z,4.39
2023-11-27T00:19:08.898Z,4.36
2023-11-27T00:21:35.810Z,4.33
2023-11-27T00:24:05.278Z,4.35
2023-11-27T00:26:32.312Z,4.32
2023-11-27T00:28:59.372Z,4.28
2023-11-27T00:31:26.261Z,4.25
2023-11-27T00:33:53.198Z,4.25
2023-11-27T00:36:21.117Z,4.26
2023-11-27T00:38:47.949Z,4.26
2023-11-27T00:41:16.073Z,4.29
2023-11-27T00:43:43.432Z,4.31
2023-11-27T00:46:14.334Z,4.30
2023-11-27T00:48:44.091Z,4.30
2023-11-27T00:51:11.052Z,4.30
2023-11-27T00:53:37.971Z,4.28
2023-11-27T00:56:06.179Z,4.31
2023-11-27T00:58:33.106Z,4.32
2023-11-27T01:00:59.938Z,4.28
2023-11-27T01:03:27.402Z,4.27
2023-11-27T01:05:56.739Z,4.27
2023-11-27T01:08:25.554Z,4.21
2023-11-27T01:10:52.637Z,4.21
2023-11-27T01:13:20.645Z,4.22
2023-11-27T01:15:47.648Z,4.21
2023-11-27T01:18:14.522Z,4.22
2023-11-27T01:20:41.337Z,4.23
2023-11-27T01:23:08.092Z,4.23
2023-11-27T01:25:34.818Z,4.27
2023-11-27T01:28:01.562Z,4.27
2023-11-27T01:30:29.596Z,4.29
2023-11-27T01:32:56.515Z,4.29
2023-11-27T01:35:23.381Z,4.27
2023-11-27T01:37:50.122Z,4.26
2023-11-27T01:40:16.950Z,4.27
2023-11-27T01:42:44.278Z,4.21
2023-11-27T01:45:11.197Z,4.25
2023-11-27T01:47:38.138Z,4.32
2023-11-27T01:50:06.977Z,4.31
2023-11-27T01:52:34.421Z,4.30
2023-11-27T01:55:01.217Z,4.25
2023-11-27T01:57:28.078Z,4.28
2023-11-27T01:59:56.604Z,4.31
2023-11-27T02:02:24.724Z,4.30
2023-11-27T02:04:52.309Z,4.31
2023-11-27T02:07:19.751Z,4.29
2023-11-27T02:09:46.693Z,4.30
2023-11-27T02:12:13.508Z,4.30
2023-11-27T02:14:40.391Z,4.28
2023-11-27T02:17:07.291Z,4.31
2023-11-27T02:19:34.389Z,4.32
2023-11-27T02:22:02.097Z,4.34
2023-11-27T02:24:28.969Z,4.33
2023-11-27T02:26:55.682Z,4.32
2023-11-27T02:29:22.476Z,4.33
2023-11-27T02:31:49.713Z,4.32
2023-11-27T02:34:18.643Z,4.32
2023-11-27T02:36:45.563Z,4.33
2023-11-27T02:39:12.848Z,4.34
2023-11-27T02:41:39.673Z,4.35
2023-11-27T02:44:07.037Z,4.36
2023-11-27T02:46:34.088Z,4.32
2023-11-27T02:49:01.161Z,4.32
2023-11-27T02:51:28.005Z,4.32
2023-11-27T02:53:55.179Z,4.30
2023-11-27T02:56:22.016Z,4.29
2023-11-27T02:58:48.954Z,4.29
2023-11-27T03:01:17.066Z,4.33
2023-11-27T03:03:44.057Z,4.33
2023-11-27T03:06:12.111Z,4.33
2023-11-27T03:08:38.910Z,4.34
2023-11-27T03:11:05.915Z,4.38
2023-11-27T03:13:32.731Z,4.36
2023-11-27T03:15:59.546Z,4.33
2023-11-27T03:18:26.606Z,4.30
2023-11-27T03:20:53.730Z,4.30
2023-11-27T03:23:21.941Z,4.27
2023-11-27T03:25:49.924Z,4.30
2023-11-27T03:28:16.850Z,4.30
2023-11-27T03:30:44.465Z,4.34
2023-11-27T03:33:12.778Z,4.34
2023-11-27T03:35:39.555Z,4.32
2023-11-27T03:38:06.608Z,4.31
2023-11-27T03:40:33.416Z,4.30
2023-11-27T03:43:00.241Z,4.34
2023-11-27T03:45:27.132Z,4.37
2023-11-27T03:47:54.006Z,4.39
2023-11-27T03:50:20.817Z,4.36
2023-11-27T03:52:48.438Z,4.38
2023-11-27T03:55:15.366Z,4.38
2023-11-27T03:57:42.652Z,4.38
2023-11-27T04:00:11.964Z,4.38
2023-11-27T04:02:41.962Z,4.43
2023-11-27T04:05:09.164Z,4.44
2023-11-27T04:07:36.033Z,4.43
2023-11-27T04:10:03.047Z,4.46
2023-11-27T04:12:33.927Z,4.49
2023-11-27T04:15:01.142Z,4.46
2023-11-27T04:17:35.340Z,4.47
2023-11-27T04:20:06.594Z,4.40
2023-11-27T04:22:35.771Z,4.42
2023-11-27T04:25:03.013Z,4.38
2023-11-27T04:27:30.057Z,4.35
2023-11-27T04:29:57.261Z,4.32
2023-11-27T04:32:24.073Z,4.35
2023-11-27T04:34:50.869Z,4.33
2023-11-27T04:37:17.671Z,4.31
2023-11-27T04:39:44.450Z,4.30
2023-11-27T04:42:12.017Z,4.30
2023-11-27T04:44:40.302Z,4.31
2023-11-27T04:47:07.233Z,4.27
2023-11-27T04:49:34.050Z,4.27
2023-11-27T04:52:00.856Z,4.26
2023-11-27T04:54:27.706Z,4.25
2023-11-27T04:56:54.443Z,4.28
2023-11-27T04:59:21.213Z,4.24
2023-11-27T05:01:47.963Z,4.23
2023-11-27T05:04:18.809Z,4.24
2023-11-27T05:06:46.336Z,4.24
2023-11-27T05:09:14.211Z,4.26
2023-11-27T05:11:41.094Z,4.24
2023-11-27T05:14:07.872Z,4.24
2023-11-27T05:16:34.818Z,4.26
2023-11-27T05:19:01.632Z,4.21
2023-11-27T05:21:28.419Z,4.20
2023-11-27T05:23:55.131Z,4.24
2023-11-27T05:26:21.838Z,4.21
2023-11-27T05:28:48.602Z,4.22
2023-11-27T05:31:16.186Z,4.24
2023-11-27T05:33:43.433Z,4.17
2023-11-27T05:36:13.647Z,4.13
2023-11-27T05:38:40.433Z,4.14
2023-11-27T05:41:08.757Z,4.14
2023-11-27T05:43:36.225Z,4.12
2023-11-27T05:46:03.098Z,4.11
2023-11-27T05:48:30.298Z,4.12
2023-11-27T05:50:57.651Z,4.09
2023-11-27T05:53:32.813Z,4.12
2023-11-27T05:56:00.204Z,4.10
2023-11-27T05:58:27.057Z,4.09
2023-11-27T06:00:55.570Z,4.12
2023-11-27T06:03:22.652Z,4.08
2023-11-27T06:05:49.476Z,4.08
2023-11-27T06:08:16.382Z,4.08
2023-11-27T06:10:43.165Z,4.12
2023-11-27T06:13:12.348Z,4.14
2023-11-27T06:15:47.530Z,4.12
2023-11-27T06:18:15.280Z,4.13
2023-11-27T06:20:42.056Z,4.13
2023-11-27T06:23:08.779Z,4.12
2023-11-27T06:25:36.791Z,4.09
2023-11-27T06:28:03.975Z,4.14
2023-11-27T06:30:31.006Z,4.09
2023-11-27T06:32:57.929Z,4.09
2023-11-27T06:35:24.660Z,4.14
2023-11-27T06:37:51.665Z,4.16
2023-11-27T06:40:18.529Z,4.15
2023-11-27T06:42:46.530Z,4.13
2023-11-27T06:45:13.313Z,4.16
2023-11-27T06:47:40.058Z,4.14
2023-11-27T06:50:07.049Z,4.16
2023-11-27T06:52:33.811Z,4.18
2023-11-27T06:55:01.125Z,4.16
2023-11-27T06:57:28.076Z,4.18
2023-11-27T06:59:54.777Z,4.19
2023-11-27T07:02:21.645Z,4.21
2023-11-27T07:04:48.546Z,4.20
2023-11-27T07:07:15.299Z,4.20
2023-11-27T07:09:42.089Z,4.20
2023-11-27T07:12:09.116Z,4.19
2023-11-27T07:14:35.945Z,4.22
2023-11-27T07:17:04.427Z,4.20
2023-11-27T07:19:31.394Z,4.18
2023-11-27T07:21:59.043Z,4.16
2023-11-27T07:24:25.788Z,4.19
2023-11-27T07:26:52.576Z,4.22
2023-11-27T07:29:19.296Z,4.22
2023-11-27T07:31:46.203Z,4.25
2023-11-27T07:34:13.007Z,4.25
2023-11-27T07:36:39.764Z,4.24
2023-11-27T07:39:11.684Z,4.26
2023-11-27T07:41:38.500Z,4.30
2023-11-27T07:44:13.425Z,4.27
2023-11-27T07:46:40.380Z,4.30
2023-11-27T07:49:07.769Z,4.31
2023-11-27T07:51:34.674Z,4.33
2023-11-27T07:54:02.513Z,4.29
2023-11-27T07:56:30.702Z,4.30
2023-11-27T07:58:57.873Z,4.28
2023-11-27T08:01:26.059Z,4.31
2023-11-27T08:03:52.996Z,4.36
2023-11-27T08:06:20.602Z,4.34
2023-11-27T08:08:48.420Z,4.35
2023-11-27T08:11:15.202Z,4.35
2023-11-27T08:13:45.319Z,4.34
2023-11-27T08:16:12.582Z,4.35
2023-11-27T08:18:41.825Z,4.40
2023-11-27T08:21:11.774Z,4.41
2023-11-27T08:23:38.824Z,4.40
2023-11-27T08:26:06.245Z,4.43
2023-11-27T08:28:33.627Z,4.47
2023-11-27T08:31:00.627Z,4.47
2023-11-27T08:33:27.419Z,4.51
2023-11-27T08:35:54.365Z,4.52
2023-11-27T08:38:21.115Z,4.56
2023-11-27T08:40:48.012Z,4.54
2023-11-27T08:43:14.765Z,4.54
2023-11-27T08:45:41.566Z,4.59
2023-11-27T08:48:09.813Z,4.56
2023-11-27T08:50:37.930Z,4.56
2023-11-27T08:53:07.307Z,4.61
2023-11-27T08:55:35.200Z,4.60
2023-11-27T08:58:05.635Z,4.60
2023-11-27T09:00:33.410Z,4.64
2023-11-27T09:03:01.709Z,4.64
2023-11-27T09:05:32.738Z,4.66
2023-11-27T09:08:02.100Z,4.68
2023-11-27T09:10:29.209Z,4.68
2023-11-27T09:12:57.000Z,4.70
2023-11-27T09:15:24.044Z,4.69
2023-11-27T09:17:50.954Z,4.71
2023-11-27T09:20:17.836Z,4.70
2023-11-27T09:22:44.635Z,4.72
2023-11-27T09:25:14.246Z,4.71
2023-11-27T09:27:41.479Z,4.73
2023-11-27T09:30:09.423Z,4.73
2023-11-27T09:32:36.837Z,4.77
2023-11-27T09:35:11.826Z,4.79
2023-11-27T09:37:40.106Z,4.83
2023-11-27T09:40:09.516Z,4.85
2023-11-27T09:42:46.581Z,4.87
2023-11-27T09:45:17.907Z,4.87
2023-11-27T09:47:49.481Z,4.87
2023-11-27T09:50:17.944Z,4.91
2023-11-27T09:52:53.739Z,4.94
2023-11-27T09:55:23.928Z,4.95
2023-11-27T09:57:52.342Z,4.95
2023-11-27T10:00:20.257Z,4.96
2023-11-27T10:02:48.753Z,4.94
2023-11-27T10:05:19.744Z,4.96
2023-11-27T10:07:47.840Z,5.01
2023-11-27T10:10:27.634Z,4.98
2023-11-27T10:13:09.240Z,4.99
2023-11-27T10:15:38.855Z,4.91
2023-11-27T10:18:09.796Z,4.98
2023-11-27T10:20:36.819Z,4.99
2023-11-27T10:23:03.832Z,5.02
2023-11-27T10:25:31.051Z,5.03
2023-11-27T10:27:59.018Z,5.05
2023-11-27T10:30:27.094Z,5.05
2023-11-27T10:32:53.973Z,5.04
2023-11-27T10:35:25.707Z,5.05
2023-11-27T10:37:55.868Z,5.08
2023-11-27T10:40:27.248Z,5.08
2023-11-27T10:42:59.895Z,5.07
2023-11-27T10:45:26.868Z,5.09
2023-11-27T10:47:54.421Z,5.11
2023-11-27T10:50:23.664Z,5.12
2023-11-27T10:52:51.235Z,5.14
2023-11-27T10:55:19.405Z,5.18
2023-11-27T10:57:48.522Z,5.18
2023-11-27T11:00:40.838Z,5.18
2023-11-27T11:03:15.598Z,5.17
2023-11-27T11:05:47.126Z,5.17
2023-11-27T11:08:14.340Z,5.19
2023-11-27T11:10:42.932Z,5.22
2023-11-27T11:13:14.993Z,5.20
2023-11-27T11:15:53.152Z,5.16
2023-11-27T11:18:53.679Z,5.16
2023-11-27T11:21:40.762Z,5.21
2023-11-27T11:24:16.366Z,5.20
2023-11-27T11:27:08.141Z,5.21
2023-11-27T11:29:45.133Z,5.21
2023-11-27T11:32:18.121Z,5.19
2023-11-27T11:34:48.781Z,5.11
2023-11-27T11:37:16.562Z,5.14
2023-11-27T11:53:07.504Z,5.22
2023-11-27T11:55:36.436Z,5.26
2023-11-27T11:58:04.746Z,5.24
2023-11-27T12:00:43.485Z,5.27
2023-11-27T12:03:16.892Z,5.28
2023-11-27T12:05:50.616Z,5.27
2023-11-27T12:08:25.199Z,5.24
2023-11-27T12:10:55.819Z,5.23
2023-11-27T12:13:35.082Z,5.23
2023-11-27T12:16:12.515Z,5.22
2023-11-27T12:18:44.268Z,5.21
2023-11-27T12:21:12.568Z,5.19
2023-11-27T12:23:39.929Z,5.14
2023-11-27T12:26:08.302Z,5.14
2023-11-27T12:28:36.111Z,5.15
2023-11-27T12:31:06.521Z,5.12
2023-11-27T12:33:34.388Z,5.12
2023-11-27T12:36:06.190Z,5.06
2023-11-27T12:38:35.802Z,5.08
2023-11-27T12:41:13.364Z,5.04
2023-11-27T12:43:40.777Z,5.03
2023-11-27T12:46:14.500Z,5.00
2023-11-27T12:48:45.518Z,4.96
2023-11-27T12:51:19.690Z,4.95
2023-11-27T12:53:51.690Z,4.96
2023-11-27T12:56:25.438Z,4.74
2023-11-27T12:58:55.627Z,4.82
2023-11-27T13:01:27.151Z,4.79
2023-11-27T13:03:54.617Z,4.81
2023-11-27T13:06:28.423Z,4.81
2023-11-27T13:08:55.428Z,4.76
2023-11-27T13:11:32.955Z,4.75
2023-11-27T13:14:08.871Z,4.68
2023-11-27T13:16:36.494Z,4.65
2023-11-27T13:19:07.773Z,4.62
2023-11-27T13:21:34.618Z,4.60
2023-11-27T13:24:03.867Z,4.58
2023-11-27T13:26:36.891Z,4.51
2023-11-27T13:29:04.476Z,4.50
2023-11-27T13:31:34.756Z,4.50
2023-11-27T13:34:08.651Z,4.49
2023-11-27T13:36:35.800Z,4.49
2023-11-27T13:39:08.888Z,4.44
2023-11-27T13:41:36.037Z,4.28
2023-11-27T13:44:08.906Z,4.40
2023-11-27T13:46:35.915Z,4.35
2023-11-27T13:49:08.122Z,4.35
2023-11-27T13:51:34.930Z,4.32
2023-11-27T13:54:01.673Z,4.33
2023-11-27T13:56:31.531Z,4.30
2023-11-27T13:58:58.984Z,4.29
2023-11-27T14:01:25.908Z,4.27
2023-11-27T14:03:53.247Z,4.25
2023-11-27T14:06:20.496Z,4.27
2023-11-27T14:08:55.560Z,4.25
2023-11-27T14:11:34.009Z,4.21
2023-11-27T14:14:07.285Z,4.18
2023-11-27T14:16:35.168Z,4.14
2023-11-27T14:19:14.730Z,4.06
2023-11-27T14:21:49.100Z,4.08
2023-11-27T14:24:16.616Z,4.06
2023-11-27T14:26:52.228Z,4.01
2023-11-27T14:29:20.065Z,4.00
2023-11-27T14:31:47.869Z,3.99
2023-11-27T14:34:14.648Z,3.91
2023-11-27T14:36:41.925Z,3.89
2023-11-27T14:39:17.174Z,3.89
2023-11-27T14:41:50.375Z,3.83
2023-11-27T14:44:19.152Z,3.80
2023-11-27T14:46:52.083Z,3.82
2023-11-27T14:49:19.111Z,3.88
2023-11-27T14:51:46.032Z,3.87
2023-11-27T14:54:12.833Z,3.80
2023-11-27T14:56:41.152Z,3.74
2023-11-27T14:59:10.928Z,3.67
2023-11-27T15:01:43.892Z,3.72
2023-11-27T15:04:12.450Z,3.53
2023-11-27T15:06:42.284Z,3.57
2023-11-27T15:09:21.459Z,3.63
2023-11-27T15:11:54.781Z,3.52
2023-11-27T15:14:23.095Z,3.56
2023-11-27T15:16:51.617Z,3.57
2023-11-27T15:19:21.975Z,3.65
2023-11-27T15:21:48.949Z,3.59
2023-11-27T15:24:18.802Z,3.59
2023-11-27T15:26:45.636Z,3.59
2023-11-27T15:29:17.242Z,3.54
2023-11-27T15:31:44.229Z,3.57
2023-11-27T15:34:11.103Z,3.54
2023-11-27T15:36:38.816Z,3.52
2023-11-27T15:39:23.159Z,3.54
2023-11-27T15:41:51.426Z,3.47
2023-11-27T15:44:19.144Z,3.50
2023-11-27T15:46:51.253Z,3.48
2023-11-27T15:49:20.638Z,3.42
2023-11-27T15:51:47.483Z,3.37
2023-11-27T15:54:14.209Z,3.36
2023-11-27T15:56:41.613Z,3.41
2023-11-27T15:59:10.276Z,3.40
2023-11-27T16:01:37.363Z,3.45
2023-11-27T16:04:05.561Z,3.44
2023-11-27T16:06:39.687Z,3.39
2023-11-27T16:09:06.852Z,3.36
2023-11-27T16:11:36.376Z,3.35
2023-11-27T16:14:09.087Z,3.37
2023-11-27T16:16:43.581Z,3.29
2023-11-27T16:19:13.214Z,3.33
2023-11-27T16:21:40.041Z,3.35
2023-11-27T16:24:07.431Z,3.36
2023-11-27T16:26:34.221Z,3.34
2023-11-27T16:29:01.548Z,3.33
2023-11-27T16:31:28.410Z,3.33
2023-11-27T16:33:55.612Z,3.29
2023-11-27T16:36:22.434Z,3.33
2023-11-27T16:38:49.162Z,3.30
2023-11-27T16:41:21.178Z,3.32
2023-11-27T16:43:48.903Z,3.33
2023-11-27T16:46:16.130Z,3.32
2023-11-27T16:48:43.194Z,3.43
2023-11-27T16:51:10.339Z,3.42
2023-11-27T16:53:38.229Z,3.40
2023-11-27T16:56:07.767Z,3.41
2023-11-27T16:58:39.408Z,3.39
2023-11-27T17:01:07.838Z,3.40
2023-11-27T17:03:36.056Z,3.39
2023-11-27T17:06:03.405Z,3.36
2023-11-27T17:08:34.252Z,3.32
2023-11-27T17:11:01.580Z,3.30
2023-11-27T17:13:28.561Z,3.26
2023-11-27T17:15:55.462Z,3.31
2023-11-27T17:18:23.706Z,3.32
2023-11-27T17:20:51.126Z,3.36
2023-11-27T17:23:18.062Z,3.37
2023-11-27T17:25:47.288Z,3.36
2023-11-27T17:28:14.559Z,3.31
2023-11-27T17:30:45.382Z,3.30
2023-11-27T17:33:13.513Z,3.31
2023-11-27T17:35:43.990Z,3.24
2023-11-27T17:38:10.807Z,3.26
2023-11-27T17:40:37.823Z,3.25
2023-11-27T17:43:04.774Z,3.22
2023-11-27T17:45:31.507Z,3.19
2023-11-27T17:47:58.342Z,3.21
2023-11-27T17:50:25.226Z,3.20
2023-11-27T17:52:53.996Z,3.23
2023-11-27T17:55:22.062Z,3.17
2023-11-27T17:57:50.870Z,3.15
2023-11-27T18:00:20.139Z,3.12
2023-11-27T18:02:54.113Z,3.14
2023-11-27T18:05:24.718Z,3.16
2023-11-27T18:07:52.611Z,3.11
2023-11-27T18:10:20.641Z,3.13
2023-11-27T18:12:50.488Z,3.11
2023-11-27T18:15:19.896Z,3.10
2023-11-27T18:17:48.075Z,3.06
2023-11-27T18:20:15.907Z,3.09
2023-11-27T18:22:45.125Z,3.09
2023-11-27T18:25:15.267Z,3.08
2023-11-27T18:27:42.610Z,3.03
2023-11-27T18:30:12.080Z,3.03
2023-11-27T18:32:40.104Z,3.12
2023-11-27T18:35:07.548Z,3.06
2023-11-27T18:44:57.763Z,3.02
2023-11-27T18:47:25.305Z,3.07
2023-11-27T18:49:52.257Z,3.05
2023-11-27T18:52:19.098Z,3.06
2023-11-27T18:54:45.911Z,3.01
2023-11-27T18:57:12.778Z,3.05
2023-11-27T18:59:39.925Z,3.04
2023-11-27T19:02:07.878Z,3.05
2023-11-27T19:04:34.955Z,2.98
2023-11-27T19:07:02.224Z,2.97
2023-11-27T19:09:30.324Z,2.97
2023-11-27T19:11:57.984Z,2.95
2023-11-27T19:14:25.218Z,2.96
2023-11-27T19:16:53.674Z,2.94
2023-11-27T19:19:20.517Z,2.92
2023-11-27T19:21:47.394Z,2.92
2023-11-27T19:24:14.162Z,2.93
2023-11-27T19:26:40.887Z,2.91
2023-11-27T19:29:07.745Z,2.92
2023-11-27T19:31:34.587Z,2.93
2023-11-27T19:34:02.276Z,2.98
2023-11-27T19:36:29.095Z,2.99
2023-11-27T19:38:56.093Z,2.99
2023-11-27T19:41:23.642Z,3.00
2023-11-27T19:43:50.614Z,2.97
2023-11-27T19:46:18.905Z,3.02
2023-11-27T19:48:46.128Z,3.00
2023-11-27T19:51:13.386Z,3.01
2023-11-27T19:53:41.107Z,2.99
2023-11-27T19:56:08.409Z,2.97
2023-11-27T19:58:35.220Z,2.99
2023-11-27T20:01:03.980Z,2.99
2023-11-27T20:03:31.114Z,3.00
2023-11-27T20:05:58.852Z,2.96
2023-11-27T20:08:26.066Z,2.91
2023-11-27T20:10:53.029Z,2.95
2023-11-27T20:13:20.289Z,2.97
2023-11-27T20:15:47.078Z,2.99
2023-11-27T20:22:08.994Z,2.92
2023-11-27T22:13:09.475Z,2.68
2023-11-27T22:15:36.215Z,2.70
2023-11-27T22:18:03.695Z,2.68
2023-11-27T22:20:30.682Z,2.73
2023-11-27T22:22:57.510Z,2.73
2023-11-27T22:25:24.385Z,2.74
2023-11-27T22:27:51.237Z,2.77
2023-11-27T22:30:19.927Z,2.75
2023-11-27T22:32:46.817Z,2.78
2023-11-27T22:35:13.578Z,2.79
2023-11-27T22:37:40.453Z,2.80
2023-11-27T22:40:08.148Z,2.86
2023-11-27T22:42:35.783Z,2.86
2023-11-27T22:45:02.761Z,2.92
2023-11-27T22:47:30.250Z,2.88
2023-11-27T22:49:57.151Z,2.93
2023-11-27T22:52:24.022Z,2.97
2023-11-27T22:54:50.778Z,3.01
2023-11-27T22:57:17.541Z,2.99
2023-11-27T22:59:44.412Z,3.00
2023-11-27T23:02:12.906Z,2.99
2023-11-27T23:04:41.424Z,3.00
2023-11-27T23:07:08.524Z,3.02
2023-11-27T23:09:35.365Z,3.03
2023-11-27T23:12:02.120Z,3.02
2023-11-27T23:14:29.924Z,3.02
2023-11-27T23:16:57.754Z,3.04
2023-11-27T23:19:24.614Z,3.11
2023-11-27T23:21:52.118Z,3.07
2023-11-27T23:24:26.307Z,3.13
2023-11-27T23:26:54.518Z,3.12
2023-11-27T23:29:22.707Z,3.13
2023-11-27T23:31:51.655Z,3.14
2023-11-27T23:34:21.538Z,3.13
2023-11-27T23:36:48.416Z,3.19
2023-11-27T23:39:15.177Z,3.22
2023-11-27T23:41:41.950Z,3.24
2023-11-27T23:44:08.832Z,3.29
2023-11-27T23:46:35.634Z,3.28
2023-11-27T23:49:02.471Z,3.35
2023-11-27T23:51:29.433Z,3.31
2023-11-27T23:53:56.628Z,3.34
2023-11-27T23:56:23.465Z,3.41
2023-11-27T23:58:50.501Z,3.40
